createdAt,value
2018-12-29T00:02:47.539Z,94.85
2018-12-29T00:07:43.534Z,94.98
2018-12-29T00:12:39.529Z,94.55
2018-12-29T00:17:35.423Z,94.61
2018-12-29T00:22:31.323Z,94.68
2018-12-29T00:27:27.214Z,94.08
2018-12-29T00:32:23.113Z,94.33
2018-12-29T00:38:00.749Z,94.29
2018-12-29T00:42:56.650Z,93.20
2018-12-29T00:47:52.660Z,94.02
2018-12-29T00:52:48.574Z,94.47
2018-12-29T00:57:44.476Z,94.62
2018-12-29T01:02:40.439Z,94.84
2018-12-29T01:07:36.444Z,94.70
2018-12-29T01:12:32.361Z,94.55
2018-12-29T01:17:28.264Z,93.92
2018-12-29T01:22:24.168Z,92.04
2018-12-29T01:27:20.132Z,92.21
2018-12-29T01:32:16.063Z,92.77
2018-12-29T01:37:11.959Z,91.84
2018-12-29T01:42:07.869Z,92.81
2018-12-29T01:47:03.822Z,93.06
2018-12-29T01:51:59.723Z,93.71
2018-12-29T01:56:55.598Z,94.15
2018-12-29T02:01:52.407Z,94.29
2018-12-29T02:06:48.276Z,93.74
2018-12-29T02:11:44.211Z,94.16
2018-12-29T02:16:40.106Z,94.40
2018-12-29T02:21:36.007Z,94.58
2018-12-29T02:31:40.468Z,94.64
2018-12-29T02:36:36.357Z,94.56
2018-12-29T02:41:32.261Z,94.52
2018-12-29T02:46:28.179Z,94.55
2018-12-29T02:51:24.087Z,94.40
2018-12-29T02:56:19.982Z,94.68
2018-12-29T03:01:36.319Z,94.73
2018-12-29T03:06:32.267Z,94.92
2018-12-29T03:11:28.167Z,94.87
2018-12-29T03:16:24.066Z,95.09
2018-12-29T03:21:19.962Z,94.98
2018-12-29T03:26:15.860Z,94.77
2018-12-29T03:31:15.137Z,94.46
2018-12-29T03:36:11.065Z,92.52
2018-12-29T03:41:06.968Z,92.22
2018-12-29T03:46:02.895Z,93.36
2018-12-29T03:50:58.786Z,93.37
2018-12-29T03:55:54.740Z,92.97
2018-12-29T04:01:12.462Z,94.11
2018-12-29T04:06:08.470Z,94.51
2018-12-29T04:11:04.478Z,94.64
2018-12-29T04:16:00.378Z,94.57
2018-12-29T04:20:56.279Z,94.47
2018-12-29T04:25:52.289Z,94.57
2018-12-29T04:31:09.116Z,94.93
2018-12-29T04:36:05.113Z,95.35
2018-12-29T04:41:01.011Z,95.04
2018-12-29T04:45:57.039Z,94.97
2018-12-29T04:50:52.934Z,94.67
2018-12-29T04:55:48.831Z,95.20
2018-12-29T05:00:45.313Z,94.50
2018-12-29T05:05:41.207Z,94.37
2018-12-29T05:10:37.104Z,94.00
2018-12-29T05:15:33.006Z,94.07
2018-12-29T05:20:28.902Z,93.89
2018-12-29T05:25:24.797Z,93.99
2018-12-29T05:30:20.698Z,94.09
2018-12-29T05:35:16.591Z,94.78
2018-12-29T05:40:12.499Z,94.90
2018-12-29T05:45:08.391Z,95.31
2018-12-29T05:50:04.385Z,95.45
2018-12-29T05:55:00.290Z,95.33
2018-12-29T05:59:56.181Z,95.22
2018-12-29T06:04:52.055Z,95.69
2018-12-29T06:09:47.946Z,95.66
2018-12-29T06:14:43.851Z,95.64
2018-12-29T06:19:39.742Z,95.51
2018-12-29T06:24:35.662Z,95.14
2018-12-29T06:29:31.542Z,94.83
2018-12-29T06:34:27.448Z,94.84
2018-12-29T06:39:23.342Z,94.77
2018-12-29T06:44:19.240Z,94.46
2018-12-29T06:49:15.261Z,94.98
2018-12-29T06:54:11.174Z,95.15
2018-12-29T06:59:07.067Z,95.62
2018-12-29T07:04:02.971Z,95.54
2018-12-29T07:08:58.874Z,95.13
2018-12-29T07:13:54.772Z,95.33
2018-12-29T07:18:50.830Z,95.47
2018-12-29T07:23:46.760Z,94.84
2018-12-29T07:28:42.680Z,95.21
2018-12-29T07:33:38.811Z,93.89
2018-12-29T07:38:34.712Z,94.08
2018-12-29T07:43:30.665Z,93.98
2018-12-29T07:48:26.586Z,94.60
2018-12-29T07:53:22.492Z,94.84
2018-12-29T07:58:18.404Z,94.55
2018-12-29T08:03:14.317Z,94.86
2018-12-29T08:08:10.228Z,94.91
2018-12-29T08:13:06.138Z,95.25
2018-12-29T08:18:02.077Z,95.54
2018-12-29T08:22:57.988Z,95.45
2018-12-29T08:27:54.075Z,95.02
2018-12-29T08:32:50.011Z,95.12
2018-12-29T08:37:53.588Z,94.70
2018-12-29T08:42:49.534Z,95.35
2018-12-29T08:47:45.463Z,95.60
2018-12-29T08:52:41.395Z,95.87
2018-12-29T08:57:38.126Z,95.01
2018-12-29T09:02:36.013Z,95.63
2018-12-29T09:07:31.955Z,95.32
2018-12-29T09:12:28.846Z,95.41
2018-12-29T09:17:24.753Z,95.17
2018-12-29T09:22:20.684Z,94.85
2018-12-29T09:27:16.592Z,94.57
2018-12-29T09:32:32.403Z,94.94
2018-12-29T09:37:28.336Z,95.44
2018-12-29T09:42:24.285Z,95.52
2018-12-29T09:47:20.215Z,95.82
2018-12-29T09:52:16.110Z,95.57
2018-12-29T09:57:12.019Z,95.75
2018-12-29T10:02:07.925Z,95.35
2018-12-29T10:07:03.989Z,95.63
2018-12-29T10:11:59.954Z,95.59
2018-12-29T10:16:55.873Z,95.30
2018-12-29T10:21:51.835Z,95.42
2018-12-29T10:32:11.363Z,95.99
2018-12-29T10:37:07.333Z,95.79
2018-12-29T10:42:03.455Z,96.08
2018-12-29T10:46:59.561Z,96.04
2018-12-29T10:51:55.594Z,96.08
2018-12-29T10:56:51.565Z,96.19
2018-12-29T11:01:47.552Z,95.88
2018-12-29T11:06:43.527Z,96.24
2018-12-29T11:11:39.729Z,96.51
2018-12-29T11:17:17.361Z,96.39
2018-12-29T11:22:13.338Z,96.65
2018-12-29T11:27:09.261Z,96.82
2018-12-29T11:32:05.310Z,96.97
2018-12-29T11:37:01.323Z,96.96
2018-12-29T11:41:57.303Z,97.06
2018-12-29T11:46:53.275Z,96.81
2018-12-29T11:51:49.176Z,96.86
2018-12-29T11:56:45.098Z,96.75
2018-12-29T12:01:41.755Z,96.60
2018-12-29T12:06:37.739Z,96.61
2018-12-29T12:11:33.704Z,96.52
2018-12-29T12:16:29.623Z,96.35
2018-12-29T12:21:25.528Z,96.07
2018-12-29T12:26:21.647Z,95.90
2018-12-29T12:31:19.913Z,95.75
2018-12-29T12:36:15.922Z,95.49
2018-12-29T12:41:11.891Z,94.97
2018-12-29T12:46:07.929Z,94.57
2018-12-29T12:51:03.857Z,94.48
2018-12-29T12:55:59.774Z,94.09
2018-12-29T13:01:17.025Z,93.80
2018-12-29T13:06:13.022Z,93.41
2018-12-29T13:11:08.933Z,93.10
2018-12-29T13:16:04.842Z,92.87
2018-12-29T13:21:00.744Z,92.76
2018-12-29T13:25:56.734Z,92.64
2018-12-29T13:31:34.611Z,92.29
2018-12-29T13:36:30.605Z,91.99
2018-12-29T13:41:26.525Z,91.55
2018-12-29T13:46:22.462Z,91.79
2018-12-29T13:51:18.381Z,91.13
2018-12-29T13:56:14.293Z,90.98
2018-12-29T14:01:32.573Z,91.03
2018-12-29T14:06:28.541Z,90.93
2018-12-29T14:11:24.485Z,90.71
2018-12-29T14:16:20.551Z,90.85
2018-12-29T14:21:16.447Z,90.82
2018-12-29T14:26:12.488Z,90.79
2018-12-29T14:31:10.569Z,90.76
2018-12-29T14:36:06.611Z,90.68
2018-12-29T14:41:02.505Z,90.15
2018-12-29T14:45:58.471Z,90.21
2018-12-29T14:50:54.384Z,90.09
2018-12-29T14:55:50.288Z,90.03
2018-12-29T15:00:46.299Z,90.13
2018-12-29T15:05:42.281Z,90.33
2018-12-29T15:10:38.204Z,90.13
2018-12-29T15:15:36.781Z,89.87
2018-12-29T15:20:33.083Z,90.65
2018-12-29T15:25:29.201Z,91.06
2018-12-29T15:30:25.103Z,91.44
2018-12-29T15:35:21.011Z,92.41
2018-12-29T15:40:16.999Z,93.57
2018-12-29T15:45:12.905Z,94.13
2018-12-29T15:50:22.626Z,94.54
2018-12-29T15:55:18.934Z,94.52
2018-12-29T16:00:14.835Z,94.76
2018-12-29T16:05:10.737Z,94.71
2018-12-29T16:10:07.054Z,94.62
2018-12-29T16:15:44.618Z,94.70
2018-12-29T16:20:40.520Z,94.92
2018-12-29T16:25:36.423Z,95.25
2018-12-29T16:30:32.400Z,95.57
2018-12-29T16:35:28.505Z,95.53
2018-12-29T16:40:26.301Z,95.63
2018-12-29T16:45:22.230Z,95.80
2018-12-29T16:50:18.128Z,95.89
2018-12-29T16:55:14.030Z,96.01
2018-12-29T17:00:09.926Z,95.35
2018-12-29T17:05:05.828Z,95.29
2018-12-29T17:10:01.729Z,94.76
2018-12-29T17:14:57.633Z,94.79
2018-12-29T17:19:53.533Z,94.83
2018-12-29T17:24:49.430Z,94.60
2018-12-29T17:29:45.326Z,94.52
2018-12-29T17:34:41.228Z,94.68
2018-12-29T17:39:37.124Z,94.88
2018-12-29T17:44:33.016Z,94.81
2018-12-29T17:49:28.922Z,94.90
2018-12-29T17:54:26.715Z,95.01
2018-12-29T17:59:22.617Z,95.05
2018-12-29T18:04:20.437Z,94.97
2018-12-29T18:09:16.346Z,95.01
2018-12-29T18:14:12.251Z,95.16
2018-12-29T18:19:08.143Z,95.18
2018-12-29T18:24:04.048Z,95.37
2018-12-29T18:28:59.944Z,95.45
2018-12-29T18:33:55.814Z,95.52
2018-12-29T18:38:51.715Z,95.35
2018-12-29T18:43:49.509Z,95.37
2018-12-29T18:48:45.407Z,95.30
2018-12-29T18:53:41.307Z,95.60
2018-12-29T18:58:37.200Z,95.51
2018-12-29T19:03:33.105Z,95.72
2018-12-29T19:08:29.398Z,95.74
2018-12-29T19:13:25.347Z,95.72
2018-12-29T19:18:23.092Z,95.67
2018-12-29T19:23:19.003Z,95.71
2018-12-29T19:28:16.911Z,95.65
2018-12-29T19:33:12.811Z,95.51
2018-12-29T19:38:08.761Z,95.51
2018-12-29T19:43:06.520Z,95.50
2018-12-29T19:48:22.494Z,95.19
2018-12-29T19:53:18.674Z,95.02
2018-12-29T19:58:14.573Z,94.97
2018-12-29T20:03:11.321Z,95.04
2018-12-29T20:08:08.335Z,95.28
2018-12-29T20:13:04.338Z,94.48
2018-12-29T20:18:00.277Z,94.01
2018-12-29T20:22:56.238Z,92.53
2018-12-29T20:27:52.149Z,91.93
2018-12-29T20:32:48.101Z,92.23
2018-12-29T20:37:44.012Z,93.65
2018-12-29T20:43:00.094Z,92.75
2018-12-29T20:47:56.214Z,89.33
2018-12-29T20:52:52.328Z,87.73
2018-12-29T20:57:48.223Z,86.64
2018-12-29T21:02:44.235Z,89.15
2018-12-29T21:07:40.330Z,91.27
2018-12-29T21:12:36.269Z,91.63
2018-12-29T21:17:32.203Z,91.40
2018-12-29T21:22:28.290Z,90.58
2018-12-29T21:27:24.197Z,90.90
2018-12-29T21:32:20.242Z,89.90
2018-12-29T21:37:16.209Z,87.95
2018-12-29T21:42:12.187Z,87.45
2018-12-29T21:47:08.091Z,87.50
2018-12-29T21:52:26.833Z,89.21
2018-12-29T21:57:22.839Z,89.82
2018-12-29T22:02:18.735Z,91.37
2018-12-29T22:07:14.693Z,91.78
2018-12-29T22:12:10.591Z,91.34
2018-12-29T22:17:06.830Z,91.45
2018-12-29T22:22:03.242Z,92.43
2018-12-29T22:26:59.135Z,91.98
2018-12-29T22:31:55.807Z,91.94
2018-12-29T22:36:51.733Z,93.51
2018-12-29T22:41:47.727Z,93.33
2018-12-29T22:46:43.625Z,93.09
2018-12-29T22:51:39.523Z,92.76
2018-12-29T22:56:35.426Z,92.88
2018-12-29T23:01:32.206Z,93.16
2018-12-29T23:06:28.149Z,93.21
2018-12-29T23:11:24.141Z,93.82
2018-12-29T23:16:20.138Z,94.34
2018-12-29T23:21:17.953Z,94.45
2018-12-29T23:26:13.871Z,94.05
2018-12-29T23:31:51.755Z,94.58
2018-12-29T23:36:47.706Z,94.92
2018-12-29T23:41:43.643Z,95.08
2018-12-29T23:46:39.670Z,95.10
2018-12-29T23:51:35.687Z,95.07
2018-12-29T23:56:33.459Z,95.18
